Time;durP1;ratioP1;P1;durP2;ratioP2;P2;SDS_P1;SDS_P2;PMS_P1;PMS_P2;Temp;Humidity;BMP_temperature;BMP_pressure;BME280_temperature;BME280_humidity;BME280_pressure;Samples;Min_cycle;Max_cycle;Signal;HPM_P1;HPM_P2
2022/01/14 00:02:04;;;;;;;27.38;16.13;;;6.30;99.90;;;;;;5091016;28;20443;-82
2022/01/14 00:04:29;;;;;;;30.65;14.65;;;6.30;99.90;;;;;;5091223;28;20047;-82
2022/01/14 00:06:56;;;;;;;25.73;15.32;;;6.30;99.90;;;;;;5074326;28;20412;-82
2022/01/14 00:09:22;;;;;;;31.15;16.17;;;6.10;99.90;;;;;;5090231;28;20040;-81
2022/01/14 00:11:52;;;;;;;31.73;14.48;;;6.20;99.90;;;;;;5090218;28;20040;-82
2022/01/14 00:16:45;;;;;;;27.65;15.35;;;6.30;99.90;;;;;;5091358;28;20047;-80
2022/01/14 00:19:11;;;;;;;27.67;15.70;;;6.10;99.90;;;;;;5092826;28;20040;-81
2022/01/14 00:21:39;;;;;;;31.42;15.55;;;6.30;99.90;;;;;;5095128;28;20032;-82
2022/01/14 00:35:03;;;;;;;27.13;14.95;;;6.40;99.90;;;;;;5084094;28;20089;-82
2022/01/14 00:37:29;;;;;;;24.27;13.88;;;6.30;99.90;;;;;;5093558;28;20039;-81
2022/01/14 00:39:54;;;;;;;25.95;14.75;;;6.30;99.90;;;;;;5094996;28;20044;-82
2022/01/14 00:42:20;;;;;;;26.65;13.75;;;6.20;99.90;;;;;;5093813;28;20051;-82
2022/01/14 00:44:45;;;;;;;26.00;15.35;;;6.30;99.90;;;;;;5094792;28;20482;-82
2022/01/14 00:47:11;;;;;;;29.35;15.52;;;6.30;99.90;;;;;;5093304;28;20072;-82
2022/01/14 00:49:37;;;;;;;24.77;12.90;;;6.30;99.90;;;;;;5077660;28;20032;-82
2022/01/14 00:52:03;;;;;;;21.52;12.55;;;6.20;99.90;;;;;;5093633;28;20042;-81
2022/01/14 00:54:28;;;;;;;28.77;15.05;;;6.20;99.90;;;;;;5093928;28;20065;-82
2022/01/14 00:57:15;;;;;;;23.33;13.60;;;6.30;99.90;;;;;;5093574;28;20111;-82
2022/01/14 00:59:41;;;;;;;25.60;13.05;;;6.10;99.90;;;;;;5076543;28;20044;-82
2022/01/14 01:02:07;;;;;;;27.10;13.30;;;6.30;99.90;;;;;;5094006;28;20578;-82
2022/01/14 01:04:37;;;;;;;26.38;15.48;;;6.20;99.90;;;;;;5092571;28;20093;-82
2022/01/14 01:07:06;;;;;;;25.85;13.85;;;6.30;99.90;;;;;;5076681;28;20047;-81
2022/01/14 01:09:32;;;;;;;26.15;13.07;;;6.30;99.90;;;;;;5075500;28;20040;-82
2022/01/14 01:12:15;;;;;;;21.45;13.60;;;6.20;99.90;;;;;;5094158;28;20143;-83
2022/01/14 01:17:14;;;;;;;21.05;12.90;;;6.30;99.90;;;;;;5093933;28;20040;-82
2022/01/14 01:19:40;;;;;;;23.13;14.25;;;6.30;99.90;;;;;;5075467;28;20040;-81
2022/01/14 01:22:07;;;;;;;23.75;14.40;;;6.20;99.90;;;;;;5093747;28;20093;-82
2022/01/14 01:24:33;;;;;;;24.95;13.60;;;6.30;99.90;;;;;;5093137;28;20039;-82
2022/01/14 01:27:03;;;;;;;26.48;15.07;;;6.20;99.90;;;;;;5093072;28;20047;-83
2022/01/14 01:29:44;;;;;;;29.60;13.50;;;6.20;99.90;;;;;;5093118;28;20051;-81
2022/01/14 01:32:10;;;;;;;20.55;12.73;;;6.30;99.90;;;;;;5092956;28;20050;-82
2022/01/14 01:34:36;;;;;;;23.83;13.27;;;6.30;99.90;;;;;;5092873;28;20118;-82
2022/01/14 01:37:03;;;;;;;22.48;11.88;;;6.20;99.90;;;;;;5092621;28;20520;-82
2022/01/14 01:39:33;;;;;;;25.10;13.13;;;6.30;99.90;;;;;;5093885;28;20403;-82
2022/01/14 01:42:01;;;;;;;24.90;13.15;;;6.20;99.90;;;;;;5091901;28;20078;-82
2022/01/14 01:44:28;;;;;;;20.45;12.10;;;6.20;99.90;;;;;;5076468;28;20505;-81
2022/01/14 01:46:55;;;;;;;18.60;11.90;;;6.20;99.90;;;;;;5075312;28;20567;-81
2022/01/14 01:49:27;;;;;;;26.65;11.68;;;6.20;99.90;;;;;;5093337;28;20031;-82
2022/01/14 01:51:53;;;;;;;21.63;12.63;;;6.20;99.90;;;;;;5092858;28;20040;-82
2022/01/14 01:54:20;;;;;;;23.98;13.23;;;6.20;99.90;;;;;;5092908;28;20123;-82
2022/01/14 01:56:49;;;;;;;29.88;14.52;;;6.10;99.90;;;;;;5089100;28;20483;-82
2022/01/14 01:59:15;;;;;;;26.73;12.63;;;6.10;99.90;;;;;;5092435;28;20043;-82
2022/01/14 02:01:41;;;;;;;27.38;13.38;;;6.00;99.90;;;;;;5091527;28;20031;-81
2022/01/14 02:04:07;;;;;;;29.65;13.38;;;6.10;99.90;;;;;;5092452;28;20115;-82
2022/01/14 02:06:37;;;;;;;29.27;16.85;;;6.10;99.90;;;;;;5091827;28;20071;-82
2022/01/14 02:09:03;;;;;;;26.88;12.90;;;5.90;99.90;;;;;;5075004;28;20471;-82
2022/01/14 02:11:29;;;;;;;25.88;13.45;;;6.00;99.90;;;;;;5092134;28;20097;-82
2022/01/14 02:13:57;;;;;;;28.58;16.58;;;6.00;99.90;;;;;;5090923;28;20429;-82
2022/01/14 02:19:18;;;;;;;31.20;15.27;;;6.10;99.90;;;;;;5091436;28;20076;-82
2022/01/14 02:22:11;;;;;;;25.50;14.63;;;6.00;99.90;;;;;;5092191;28;20063;-82
2022/01/14 02:24:56;;;;;;;25.48;14.68;;;6.00;99.90;;;;;;5090893;28;20568;-81
2022/01/14 02:27:20;;;;;;;30.02;15.55;;;6.10;99.90;;;;;;5091400;28;20552;-81
2022/01/14 02:29:46;;;;;;;30.30;16.33;;;6.00;99.90;;;;;;5092451;28;20043;-80
2022/01/14 02:32:12;;;;;;;25.80;15.60;;;6.10;99.90;;;;;;5102551;28;20043;-82
2022/01/14 02:34:37;;;;;;;29.00;15.73;;;6.10;99.90;;;;;;5106423;28;20067;-82
2022/01/14 02:37:04;;;;;;;28.52;15.45;;;6.00;99.90;;;;;;5104608;28;20042;-81
2022/01/14 02:39:30;;;;;;;32.60;16.67;;;6.10;99.90;;;;;;5105907;28;20036;-82
2022/01/14 02:41:55;;;;;;;24.70;14.13;;;6.00;99.90;;;;;;5104090;28;20031;-81
2022/01/14 02:44:27;;;;;;;26.10;15.27;;;6.20;99.90;;;;;;5105531;28;20040;-81
2022/01/14 02:47:03;;;;;;;23.23;14.25;;;6.20;99.90;;;;;;5079555;28;20079;-81
2022/01/14 02:49:31;;;;;;;26.17;15.45;;;6.20;99.90;;;;;;5096017;28;20093;-81
2022/01/14 02:51:58;;;;;;;25.50;14.23;;;6.30;99.90;;;;;;5096400;28;20047;-81
2022/01/14 02:54:38;;;;;;;21.48;13.40;;;6.10;99.90;;;;;;5093907;28;20043;-81
2022/01/14 02:57:07;;;;;;;25.08;13.23;;;6.10;99.90;;;;;;5079014;28;20036;-82
2022/01/14 02:59:34;;;;;;;35.88;14.30;;;6.20;99.90;;;;;;5092128;28;20059;-81
2022/01/14 03:02:02;;;;;;;27.95;14.35;;;6.30;99.90;;;;;;5095866;28;20048;-81
2022/01/14 03:04:29;;;;;;;25.67;14.93;;;6.20;99.90;;;;;;5095084;28;20043;-80
2022/01/14 03:06:54;;;;;;;27.00;15.25;;;6.30;99.90;;;;;;5094523;28;20048;-81
2022/01/14 03:09:20;;;;;;;27.77;15.15;;;6.20;99.90;;;;;;5094934;28;20421;-81
2022/01/14 03:11:47;;;;;;;31.73;16.70;;;6.20;99.90;;;;;;5095194;28;20036;-81
2022/01/14 03:14:14;;;;;;;23.38;14.73;;;6.20;99.90;;;;;;5093789;28;20046;-81
2022/01/14 03:16:42;;;;;;;28.42;14.00;;;6.20;99.90;;;;;;5094556;28;20098;-81
2022/01/14 03:19:19;;;;;;;26.45;15.68;;;6.30;99.90;;;;;;5094725;28;20032;-81
2022/01/14 03:21:44;;;;;;;25.38;14.63;;;6.10;99.90;;;;;;5094707;28;20449;-81
2022/01/14 03:24:20;;;;;;;28.90;15.98;;;6.30;99.90;;;;;;5093440;28;20031;-80
2022/01/14 03:26:47;;;;;;;31.83;15.93;;;6.20;99.90;;;;;;5077559;28;20039;-81
2022/01/14 03:29:14;;;;;;;28.70;15.93;;;6.20;99.90;;;;;;5094604;28;20035;-81
2022/01/14 03:31:40;;;;;;;27.02;15.68;;;6.20;99.90;;;;;;5076915;28;20036;-81
2022/01/14 03:34:06;;;;;;;36.55;19.20;;;6.30;99.90;;;;;;5094284;28;20028;-81
2022/01/14 03:36:32;;;;;;;30.67;15.57;;;6.10;99.90;;;;;;5093761;28;20043;-82
2022/01/14 03:38:58;;;;;;;33.25;16.23;;;6.40;99.90;;;;;;5078425;28;20483;-81
2022/01/14 03:41:24;;;;;;;28.65;15.73;;;6.40;99.90;;;;;;5092953;28;20032;-81
2022/01/14 03:43:50;;;;;;;28.63;15.63;;;6.30;99.90;;;;;;5093694;28;20514;-81
2022/01/14 03:46:15;;;;;;;41.35;19.02;;;6.20;99.90;;;;;;5092838;28;20482;-81
2022/01/14 03:48:41;;;;;;;30.50;17.23;;;6.20;99.90;;;;;;5094141;28;20036;-81
2022/01/14 03:51:07;;;;;;;37.70;17.20;;;6.30;99.90;;;;;;5076021;28;20040;-82
2022/01/14 03:53:33;;;;;;;32.97;18.63;;;6.30;99.90;;;;;;5097025;28;20097;-81
2022/01/14 03:55:59;;;;;;;24.10;14.63;;;6.40;99.90;;;;;;5096371;28;20039;-81
2022/01/14 03:58:24;;;;;;;33.80;17.88;;;6.30;99.90;;;;;;5097556;28;20058;-81
2022/01/14 04:00:50;;;;;;;34.55;18.27;;;6.40;99.90;;;;;;5079783;28;20089;-81
2022/01/14 04:03:15;;;;;;;31.52;17.15;;;6.50;99.90;;;;;;5097236;28;20028;-81
2022/01/14 04:05:41;;;;;;;33.00;15.00;;;6.50;99.90;;;;;;5095783;28;20085;-80
2022/01/14 04:08:06;;;;;;;36.55;17.98;;;6.50;99.90;;;;;;5096254;28;20036;-81
2022/01/14 04:10:32;;;;;;;31.30;16.48;;;6.30;99.90;;;;;;5096102;28;20661;-82
2022/01/14 04:13:05;;;;;;;29.30;15.82;;;6.40;99.90;;;;;;5096927;28;20539;-81
2022/01/14 04:15:39;;;;;;;32.15;17.42;;;6.40;99.90;;;;;;5096139;28;20089;-81
2022/01/14 04:18:13;;;;;;;38.53;17.88;;;6.40;99.90;;;;;;5096544;28;20492;-81
2022/01/14 04:20:40;;;;;;;32.00;15.25;;;6.50;99.90;;;;;;5077476;28;20044;-81
2022/01/14 04:23:07;;;;;;;32.33;18.10;;;6.60;99.90;;;;;;5093462;28;20082;-81
2022/01/14 04:25:33;;;;;;;26.55;15.10;;;6.30;99.90;;;;;;5093902;28;20101;-81
2022/01/14 04:28:00;;;;;;;28.10;16.98;;;6.40;99.90;;;;;;5093089;28;20032;-81
2022/01/14 04:30:25;;;;;;;26.63;16.38;;;6.40;99.90;;;;;;5093804;28;20479;-81
2022/01/14 04:32:51;;;;;;;27.10;15.38;;;6.40;99.90;;;;;;5092665;28;20072;-82
2022/01/14 04:35:17;;;;;;;33.97;14.23;;;6.50;99.90;;;;;;5093859;28;20089;-81
2022/01/14 04:37:43;;;;;;;42.65;16.90;;;6.50;99.90;;;;;;5092864;28;20036;-81
2022/01/14 04:40:09;;;;;;;26.55;15.85;;;6.50;99.90;;;;;;5092978;28;20513;-81
2022/01/14 04:42:36;;;;;;;46.40;18.50;;;6.60;99.90;;;;;;5093639;28;20036;-83
2022/01/14 04:45:03;;;;;;;28.33;14.40;;;6.50;99.90;;;;;;5093517;28;20078;-81
2022/01/14 04:47:44;;;;;;;28.50;15.68;;;6.60;99.90;;;;;;5092795;28;20054;-81
2022/01/14 04:50:15;;;;;;;27.30;15.00;;;6.60;99.90;;;;;;5093118;28;20076;-81
2022/01/14 04:52:43;;;;;;;34.47;16.75;;;6.50;99.90;;;;;;5092938;28;20040;-83
2022/01/14 04:55:10;;;;;;;27.80;13.90;;;6.50;99.90;;;;;;5092172;28;20040;-82
2022/01/14 04:57:36;;;;;;;27.85;14.95;;;6.40;99.90;;;;;;5092582;28;20044;-81
2022/01/14 05:00:10;;;;;;;26.52;16.02;;;6.50;99.90;;;;;;5092432;28;20032;-81
2022/01/14 05:02:37;;;;;;;32.10;17.98;;;6.40;99.90;;;;;;5092671;28;20146;-82
2022/01/14 05:05:04;;;;;;;28.77;16.02;;;6.60;99.90;;;;;;5091501;28;20076;-81
2022/01/14 05:07:29;;;;;;;38.28;19.85;;;6.80;99.90;;;;;;5091831;28;20494;-81
2022/01/14 05:12:30;;;;;;;33.37;18.67;;;6.60;99.90;;;;;;5093006;28;20043;-81
2022/01/14 05:14:56;;;;;;;34.50;19.95;;;6.50;99.90;;;;;;5092287;28;20143;-83
2022/01/14 05:17:22;;;;;;;38.47;23.48;;;6.60;99.90;;;;;;5092567;28;20028;-81
2022/01/14 05:19:49;;;;;;;45.53;22.50;;;6.50;99.90;;;;;;5091961;28;20079;-81
2022/01/14 05:22:15;;;;;;;38.45;21.27;;;6.50;99.90;;;;;;5089354;28;20040;-81
2022/01/14 05:24:40;;;;;;;36.63;20.85;;;6.40;99.90;;;;;;5092130;28;20505;-81
2022/01/14 05:27:07;;;;;;;43.45;23.58;;;6.40;99.90;;;;;;5091768;28;20038;-81
2022/01/14 05:29:32;;;;;;;39.17;22.48;;;6.60;99.90;;;;;;5092120;28;20493;-81
2022/01/14 05:32:03;;;;;;;30.80;18.45;;;6.10;99.90;;;;;;5092106;28;20039;-81
2022/01/14 05:34:33;;;;;;;34.72;19.88;;;6.40;99.90;;;;;;5092155;28;20039;-81
2022/01/14 05:37:00;;;;;;;39.67;22.50;;;6.50;99.90;;;;;;5091431;28;20055;-83
2022/01/14 05:39:26;;;;;;;33.70;20.50;;;6.30;99.90;;;;;;5091498;28;20027;-82
2022/01/14 05:41:52;;;;;;;39.28;21.77;;;6.20;99.90;;;;;;5091584;28;20097;-81
2022/01/14 05:44:19;;;;;;;37.13;20.52;;;6.10;99.90;;;;;;5092672;28;20065;-81
2022/01/14 05:46:46;;;;;;;36.20;21.52;;;6.30;99.90;;;;;;5092255;28;20071;-81
2022/01/14 05:49:12;;;;;;;38.10;20.73;;;6.40;99.90;;;;;;5093044;28;20071;-81
2022/01/14 05:51:37;;;;;;;37.58;20.75;;;6.20;99.90;;;;;;5092212;28;20082;-81
2022/01/14 05:54:03;;;;;;;41.22;20.08;;;6.30;99.90;;;;;;5092708;28;20047;-81
2022/01/14 05:56:29;;;;;;;39.92;19.23;;;6.30;99.90;;;;;;5091696;28;20048;-81
2022/01/14 05:58:54;;;;;;;37.42;21.55;;;6.30;99.90;;;;;;5092126;28;20052;-80
2022/01/14 06:01:21;;;;;;;32.17;19.60;;;6.10;99.90;;;;;;5091931;28;20031;-82
2022/01/14 06:03:47;;;;;;;36.28;22.15;;;6.30;99.90;;;;;;5092279;28;20031;-81
2022/01/14 06:06:12;;;;;;;34.72;19.58;;;6.40;99.90;;;;;;5091407;28;20320;-82
2022/01/14 06:08:38;;;;;;;30.75;18.02;;;6.30;99.90;;;;;;5092543;28;20047;-81
2022/01/14 06:11:04;;;;;;;39.65;20.35;;;6.20;99.90;;;;;;5091862;28;20065;-80
2022/01/14 06:13:29;;;;;;;32.28;19.60;;;6.10;99.90;;;;;;5091356;28;20036;-80
2022/01/14 06:15:55;;;;;;;33.08;18.73;;;6.20;99.90;;;;;;5091818;28;20127;-82
2022/01/14 06:18:20;;;;;;;35.95;19.38;;;6.10;99.90;;;;;;5091633;28;20414;-80
2022/01/14 06:20:49;;;;;;;32.38;19.15;;;6.30;99.90;;;;;;5091611;28;20036;-79
2022/01/14 06:23:14;;;;;;;36.90;18.10;;;6.10;99.90;;;;;;5091951;28;20078;-80
2022/01/14 06:25:40;;;;;;;32.15;18.88;;;6.30;99.90;;;;;;5074345;28;20079;-80
2022/01/14 06:28:06;;;;;;;29.77;17.17;;;6.20;99.90;;;;;;5091679;28;20379;-80
2022/01/14 06:30:32;;;;;;;31.80;18.30;;;6.00;99.90;;;;;;5091651;28;20040;-81
2022/01/14 06:32:57;;;;;;;28.67;16.38;;;6.10;99.90;;;;;;5090919;28;20040;-80
2022/01/14 06:35:23;;;;;;;28.40;17.30;;;6.20;99.90;;;;;;5090857;28;20032;-80
2022/01/14 06:37:49;;;;;;;31.38;17.73;;;6.30;99.90;;;;;;5090035;28;20043;-80
2022/01/14 06:40:15;;;;;;;33.63;17.45;;;6.20;99.90;;;;;;5090653;28;20031;-81
2022/01/14 06:42:42;;;;;;;32.45;16.33;;;6.20;99.90;;;;;;5090276;28;20406;-81
2022/01/14 06:45:08;;;;;;;46.28;20.73;;;6.20;99.90;;;;;;5090386;28;20032;-81
2022/01/14 06:47:34;;;;;;;36.15;19.20;;;6.20;99.90;;;;;;5089327;28;20558;-81
2022/01/14 06:49:59;;;;;;;31.75;18.30;;;6.10;99.90;;;;;;5090330;28;20036;-81
2022/01/14 06:52:25;;;;;;;30.73;18.05;;;6.10;99.90;;;;;;5090165;28;20138;-81
2022/01/14 06:54:51;;;;;;;30.95;18.00;;;6.30;99.90;;;;;;5091062;28;20043;-81
2022/01/14 06:57:17;;;;;;;30.10;17.40;;;6.20;99.90;;;;;;5090001;28;20521;-81
2022/01/14 06:59:42;;;;;;;31.13;18.67;;;6.20;99.90;;;;;;5090355;28;20040;-81
2022/01/14 07:02:09;;;;;;;31.98;16.45;;;6.20;99.90;;;;;;5089994;28;20084;-81
2022/01/14 07:04:35;;;;;;;27.38;15.35;;;6.30;99.90;;;;;;5089771;28;20059;-83
2022/01/14 07:07:02;;;;;;;29.77;16.45;;;6.10;99.90;;;;;;5073148;28;20040;-81
2022/01/14 07:09:29;;;;;;;23.55;14.52;;;6.20;99.90;;;;;;5089909;28;20367;-82
2022/01/14 07:11:58;;;;;;;30.17;16.73;;;6.10;99.90;;;;;;5090159;28;20072;-80
2022/01/14 07:14:23;;;;;;;24.38;17.00;;;6.30;99.90;;;;;;5089858;28;20036;-81
2022/01/14 07:16:49;;;;;;;32.45;16.92;;;6.30;99.90;;;;;;5089434;28;20228;-81
2022/01/14 07:19:17;;;;;;;25.45;15.30;;;6.20;99.90;;;;;;5089508;28;20425;-81
2022/01/14 07:21:43;;;;;;;30.40;16.80;;;6.10;99.90;;;;;;5072359;28;20036;-81
2022/01/14 07:24:10;;;;;;;28.48;16.10;;;6.30;99.90;;;;;;5088794;28;20036;-81
2022/01/14 07:26:35;;;;;;;24.50;14.77;;;6.20;99.90;;;;;;5090841;28;20093;-81
2022/01/14 07:29:01;;;;;;;27.77;14.43;;;6.30;99.90;;;;;;5095933;28;20060;-81
2022/01/14 07:31:27;;;;;;;30.67;16.67;;;6.20;99.90;;;;;;5096356;28;20063;-82
2022/01/14 07:33:53;;;;;;;31.48;15.63;;;6.30;99.90;;;;;;5093047;28;20044;-82
2022/01/14 07:36:19;;;;;;;24.60;14.68;;;6.30;99.90;;;;;;5096466;28;20040;-82
2022/01/14 07:38:44;;;;;;;28.48;16.35;;;6.30;99.90;;;;;;5096080;28;20089;-81
2022/01/14 07:41:10;;;;;;;27.55;14.82;;;6.30;99.90;;;;;;5096170;28;20039;-81
2022/01/14 07:43:36;;;;;;;25.42;15.20;;;6.40;99.90;;;;;;5096693;28;20048;-82
2022/01/14 07:46:03;;;;;;;25.98;13.68;;;6.40;99.90;;;;;;5095843;28;20544;-81
2022/01/14 07:48:28;;;;;;;23.52;14.25;;;6.20;99.90;;;;;;5096112;28;20062;-80
2022/01/14 07:50:54;;;;;;;24.30;14.18;;;6.40;99.90;;;;;;5096026;28;20727;-81
2022/01/14 07:53:20;;;;;;;24.15;15.73;;;6.50;99.90;;;;;;5096340;28;20043;-81
2022/01/14 07:55:45;;;;;;;25.02;14.63;;;6.40;99.90;;;;;;5078076;28;20494;-81
2022/01/14 07:58:12;;;;;;;24.90;13.60;;;6.30;99.90;;;;;;5095676;28;20031;-80
2022/01/14 08:00:38;;;;;;;29.17;15.50;;;6.40;99.90;;;;;;5096115;28;20051;-81
2022/01/14 08:03:03;;;;;;;25.02;13.80;;;6.50;99.90;;;;;;5096237;28;20036;-81
2022/01/14 08:05:29;;;;;;;21.85;13.63;;;6.40;99.90;;;;;;5095754;28;20448;-81
2022/01/14 08:07:57;;;;;;;25.05;14.00;;;6.50;99.90;;;;;;5095725;28;20408;-81
2022/01/14 08:10:24;;;;;;;27.08;16.20;;;6.50;99.90;;;;;;5078745;28;20036;-81
2022/01/14 08:12:50;;;;;;;24.73;14.23;;;6.40;99.90;;;;;;5095259;28;20574;-81
2022/01/14 08:15:16;;;;;;;23.77;13.88;;;6.60;99.90;;;;;;5095672;28;20043;-81
2022/01/14 08:17:42;;;;;;;21.58;12.88;;;6.40;99.90;;;;;;5095626;28;20127;-81
2022/01/14 08:20:08;;;;;;;29.50;14.20;;;6.50;99.90;;;;;;5095437;28;20571;-81
2022/01/14 08:22:35;;;;;;;20.15;12.75;;;6.60;99.90;;;;;;5095891;28;20032;-80
2022/01/14 08:25:03;;;;;;;26.88;12.82;;;6.60;99.90;;;;;;5095537;28;20043;-81
2022/01/14 08:27:28;;;;;;;26.63;14.05;;;6.40;99.90;;;;;;5095829;28;20032;-81
2022/01/14 08:29:54;;;;;;;21.55;11.70;;;7.10;99.90;;;;;;5095678;28;20047;-81
2022/01/14 08:32:21;;;;;;;25.70;12.80;;;7.10;99.90;;;;;;5095744;28;20501;-82
2022/01/14 08:34:47;;;;;;;25.92;13.63;;;6.60;99.90;;;;;;5095451;28;20131;-80
2022/01/14 08:37:12;;;;;;;28.92;13.65;;;6.60;99.90;;;;;;5095039;28;22000;-80
2022/01/14 08:39:39;;;;;;;22.73;13.45;;;6.60;99.90;;;;;;5091457;28;20055;-80
2022/01/14 08:42:06;;;;;;;24.10;11.57;;;6.60;99.90;;;;;;5092575;28;20513;-80
2022/01/14 08:44:32;;;;;;;22.25;12.50;;;6.60;99.90;;;;;;5092021;28;20085;-80
2022/01/14 08:46:58;;;;;;;21.55;12.25;;;6.60;99.90;;;;;;5091892;28;20036;-81
2022/01/14 08:49:24;;;;;;;25.73;12.40;;;6.60;99.90;;;;;;5091973;28;20043;-82
2022/01/14 08:51:49;;;;;;;25.05;12.75;;;6.70;99.90;;;;;;5092181;28;20050;-82
2022/01/14 08:54:16;;;;;;;21.95;11.85;;;6.60;99.90;;;;;;5091994;28;20212;-82
2022/01/14 08:56:42;;;;;;;24.48;12.55;;;6.60;99.90;;;;;;5091874;28;20119;-82
2022/01/14 08:59:07;;;;;;;21.95;11.30;;;6.60;99.90;;;;;;5092028;28;20039;-80
2022/01/14 09:01:34;;;;;;;20.65;11.88;;;6.90;99.90;;;;;;5091991;28;20044;-80
2022/01/14 09:04:01;;;;;;;21.75;11.35;;;6.70;99.90;;;;;;5074623;28;20119;-80
2022/01/14 09:06:27;;;;;;;14.82;9.95;;;6.90;99.90;;;;;;5074527;28;20131;-81
2022/01/14 09:08:53;;;;;;;22.88;11.73;;;6.80;99.90;;;;;;5091936;28;20103;-81
2022/01/14 09:11:19;;;;;;;19.75;11.05;;;6.70;99.90;;;;;;5091546;28;20036;-83
2022/01/14 09:13:44;;;;;;;22.15;10.43;;;6.80;99.90;;;;;;5091538;28;20062;-81
2022/01/14 09:16:10;;;;;;;21.00;10.77;;;6.80;99.90;;;;;;5091459;28;20047;-81
2022/01/14 09:18:36;;;;;;;20.42;9.63;;;6.90;99.90;;;;;;5074812;28;20055;-82
2022/01/14 09:21:02;;;;;;;21.02;11.30;;;6.90;99.90;;;;;;5091343;28;20069;-81
2022/01/14 09:23:29;;;;;;;18.77;10.82;;;7.00;99.90;;;;;;5092347;28;20024;-82
2022/01/14 09:25:56;;;;;;;21.40;10.30;;;6.90;99.90;;;;;;5091552;28;20032;-80
2022/01/14 09:28:21;;;;;;;18.38;9.27;;;6.90;99.90;;;;;;5091459;28;20032;-81
2022/01/14 09:30:47;;;;;;;22.08;10.65;;;7.10;99.90;;;;;;5091361;28;20050;-81
2022/01/14 09:33:17;;;;;;;17.27;8.80;;;7.10;99.90;;;;;;5091444;28;20055;-80
2022/01/14 09:35:43;;;;;;;15.45;9.30;;;7.20;99.90;;;;;;5091824;28;20036;-80
2022/01/14 09:38:09;;;;;;;260.05;140.10;;;7.20;99.90;;;;;;5091751;28;20040;-81
2022/01/14 09:40:36;;;;;;;18.30;10.00;;;7.10;99.90;;;;;;5091720;28;20654;-81
2022/01/14 09:43:02;;;;;;;17.35;9.77;;;7.30;99.90;;;;;;5074895;28;20050;-81
2022/01/14 09:45:28;;;;;;;14.73;8.85;;;7.20;99.90;;;;;;5091916;28;20119;-81
2022/01/14 09:47:55;;;;;;;12.80;9.05;;;7.40;99.90;;;;;;5092097;28;20455;-81
2022/01/14 09:50:21;;;;;;;23.23;8.55;;;7.30;99.90;;;;;;5091507;28;20093;-81
2022/01/14 09:52:51;;;;;;;15.68;8.88;;;7.30;99.90;;;;;;5092025;28;20524;-80
2022/01/14 09:55:21;;;;;;;11.50;6.47;;;7.40;99.90;;;;;;5092695;28;20086;-81
2022/01/14 09:57:47;;;;;;;13.88;7.55;;;7.30;99.90;;;;;;5091936;28;20086;-82
2022/01/14 10:00:14;;;;;;;15.50;7.10;;;7.30;99.90;;;;;;5091927;28;20042;-81
2022/01/14 10:02:42;;;;;;;14.05;7.07;;;7.20;99.90;;;;;;5091787;28;20036;-81
2022/01/14 10:05:10;;;;;;;13.50;5.80;;;7.40;99.90;;;;;;5091706;28;20032;-81
2022/01/14 10:07:35;;;;;;;14.13;7.13;;;7.90;99.90;;;;;;5091092;28;20028;-81
2022/01/14 10:10:20;;;;;;;14.90;7.53;;;7.40;99.90;;;;;;5091407;28;20054;-81
2022/01/14 10:12:45;;;;;;;16.17;6.22;;;7.30;99.90;;;;;;5091450;28;20032;-81
2022/01/14 10:15:12;;;;;;;13.50;5.47;;;7.50;99.90;;;;;;5074785;28;20079;-81
2022/01/14 10:17:39;;;;;;;14.73;6.50;;;7.40;99.90;;;;;;5091274;28;20047;-81
2022/01/14 10:20:06;;;;;;;16.73;6.53;;;7.50;99.90;;;;;;5091317;28;20036;-79
2022/01/14 10:22:34;;;;;;;13.60;5.60;;;7.50;99.90;;;;;;5091515;28;20048;-82
2022/01/14 10:25:05;;;;;;;7.90;4.60;;;7.70;99.90;;;;;;5091303;28;20486;-80
2022/01/14 10:27:41;;;;;;;13.70;5.30;;;7.60;99.90;;;;;;5091578;28;20040;-81
2022/01/14 10:30:24;;;;;;;;;;;8.00;99.90;;;;;;5091383;28;20126;-81
2022/01/14 10:33:02;;;;;;;8.73;4.45;;;7.70;99.90;;;;;;5088700;28;19916;-81
2022/01/14 10:35:33;;;;;;;9.02;4.57;;;7.90;99.90;;;;;;5091490;28;20047;-81
2022/01/14 10:38:01;;;;;;;12.23;6.20;;;7.80;99.90;;;;;;5090796;28;20042;-81
2022/01/14 10:40:28;;;;;;;6.65;4.15;;;7.70;99.90;;;;;;5090233;28;20040;-83
2022/01/14 10:43:06;;;;;;;9.23;5.40;;;7.80;99.90;;;;;;5089822;28;20507;-81
2022/01/14 10:45:33;;;;;;;9.48;5.72;;;7.80;99.90;;;;;;5089535;28;20506;-81
2022/01/14 10:48:02;;;;;;;11.45;5.75;;;7.70;99.90;;;;;;5089494;28;20040;-82
2022/01/14 10:50:42;;;;;;;11.93;4.38;;;7.60;99.90;;;;;;5073091;28;20035;-81
2022/01/14 10:53:18;;;;;;;13.73;4.93;;;7.80;99.90;;;;;;5088979;28;20043;-81
2022/01/14 10:55:46;;;;;;;10.15;4.18;;;7.50;99.90;;;;;;5090300;28;20044;-81
2022/01/14 10:58:25;;;;;;;10.85;4.30;;;7.70;99.90;;;;;;5090614;28;20037;-81
2022/01/14 11:00:59;;;;;;;13.43;4.47;;;7.70;99.90;;;;;;5090108;28;20105;-81
2022/01/14 11:03:34;;;;;;;8.63;4.30;;;7.70;99.90;;;;;;5090289;28;20071;-81
2022/01/14 11:06:15;;;;;;;12.18;4.28;;;7.60;99.90;;;;;;5073625;28;20095;-82
2022/01/14 11:08:41;;;;;;;12.25;3.63;;;7.70;99.90;;;;;;5090746;28;20052;-81
2022/01/14 11:11:07;;;;;;;10.95;3.42;;;7.70;99.90;;;;;;5090626;28;20044;-81
2022/01/14 11:13:33;;;;;;;34.08;13.77;;;7.60;99.90;;;;;;5090323;28;20147;-82
2022/01/14 11:15:59;;;;;;;11.75;5.30;;;7.60;99.90;;;;;;5090382;28;20124;-82
2022/01/14 11:18:25;;;;;;;20.02;7.53;;;7.80;99.90;;;;;;5082479;28;20195;-81
2022/01/14 11:23:34;;;;;;;20.08;5.60;;;7.80;99.90;;;;;;5070319;28;20036;-83
2022/01/14 11:26:06;;;;;;;42.63;22.73;;;7.70;99.90;;;;;;5070770;28;20064;-81
2022/01/14 11:28:35;;;;;;;12.00;3.75;;;7.70;99.90;;;;;;5078207;28;20088;-81
2022/01/14 11:31:31;;;;;;;13.13;3.58;;;7.60;99.90;;;;;;5090599;28;20051;-82
2022/01/14 11:33:59;;;;;;;11.35;4.10;;;7.80;99.90;;;;;;5090615;28;20044;-82
2022/01/14 11:36:45;;;;;;;6.90;2.90;;;7.70;99.90;;;;;;5090322;28;20048;-82
2022/01/14 11:39:20;;;;;;;9.70;3.38;;;7.90;99.90;;;;;;5066338;28;20077;-81
2022/01/14 11:41:55;;;;;;;7.65;3.42;;;7.80;99.90;;;;;;5090444;28;20036;-81
2022/01/14 11:47:37;;;;;;;9.95;3.90;;;7.80;99.90;;;;;;5090523;28;20071;-80
2022/01/14 11:50:05;;;;;;;6.78;3.70;;;7.80;99.90;;;;;;5091404;28;20052;-82
2022/01/14 11:52:41;;;;;;;10.63;4.00;;;7.80;99.90;;;;;;5090207;28;20456;-80
2022/01/14 11:55:21;;;;;;;12.60;3.55;;;7.80;99.90;;;;;;5089982;28;20039;-79
2022/01/14 11:57:50;;;;;;;13.27;3.05;;;7.90;99.90;;;;;;5089462;28;20532;-80
2022/01/14 12:00:28;;;;;;;7.28;3.92;;;7.80;99.90;;;;;;5089808;28;20040;-80
2022/01/14 12:02:57;;;;;;;7.85;3.70;;;7.70;99.90;;;;;;5090170;28;20036;-80
2022/01/14 12:05:30;;;;;;;10.50;3.80;;;7.70;99.90;;;;;;5090050;28;20055;-80
2022/01/14 12:08:02;;;;;;;75.68;43.30;;;7.90;99.90;;;;;;5089972;28;20491;-79
2022/01/14 12:10:32;;;;;;;38.20;18.70;;;7.90;99.90;;;;;;5090032;28;20044;-80
2022/01/14 12:13:21;;;;;;;10.95;3.22;;;7.90;99.90;;;;;;5090640;28;20486;-80
2022/01/14 12:15:54;;;;;;;16.60;3.60;;;7.90;99.90;;;;;;5093272;28;20055;-79
2022/01/14 12:19:03;;;;;;;12.38;5.50;;;7.90;99.90;;;;;;5093949;28;20040;-80
2022/01/14 12:21:41;;;;;;;7.68;3.08;;;8.00;99.90;;;;;;5083616;28;20048;-80
2022/01/14 12:24:18;;;;;;;6.25;2.53;;;7.80;99.90;;;;;;5094052;28;20063;-80
2022/01/14 12:27:08;;;;;;;8.68;2.60;;;7.90;99.90;;;;;;5092873;28;20044;-80
2022/01/14 12:29:44;;;;;;;10.88;3.75;;;7.80;99.90;;;;;;5093366;28;20044;-80
2022/01/14 12:32:20;;;;;;;9.27;3.10;;;7.80;99.90;;;;;;5093378;28;20119;-80
2022/01/14 12:34:55;;;;;;;8.48;3.10;;;7.80;99.90;;;;;;5093223;28;20521;-79
2022/01/14 12:37:25;;;;;;;10.25;3.47;;;7.90;99.90;;;;;;5093137;28;20541;-80
2022/01/14 12:39:52;;;;;;;8.82;2.53;;;7.80;99.90;;;;;;5093600;28;20044;-80
2022/01/14 12:42:19;;;;;;;7.38;3.00;;;7.80;99.90;;;;;;5093215;28;20123;-79
2022/01/14 12:44:46;;;;;;;11.40;3.97;;;7.70;99.90;;;;;;5092572;28;20502;-80
2022/01/14 12:47:19;;;;;;;14.07;3.92;;;7.70;99.90;;;;;;5092097;28;20071;-81
2022/01/14 12:49:45;;;;;;;11.02;4.40;;;7.70;99.90;;;;;;5092901;28;20513;-79
2022/01/14 12:52:23;;;;;;;6.40;3.15;;;7.90;99.90;;;;;;5092836;28;20040;-79
2022/01/14 12:54:48;;;;;;;6.25;2.42;;;7.60;99.90;;;;;;5093198;28;20471;-80
2022/01/14 12:57:17;;;;;;;12.07;3.13;;;7.70;99.90;;;;;;5091348;28;20059;-79
2022/01/14 12:59:43;;;;;;;10.07;2.92;;;7.80;99.90;;;;;;5093482;28;20066;-82
2022/01/14 13:02:16;;;;;;;11.90;4.03;;;7.70;99.90;;;;;;5092660;28;20047;-80
2022/01/14 13:04:41;;;;;;;10.75;3.55;;;7.70;99.90;;;;;;5090610;28;20040;-80
2022/01/14 13:07:08;;;;;;;12.77;3.50;;;7.70;99.90;;;;;;5093767;28;20364;-80
2022/01/14 13:09:37;;;;;;;7.65;2.88;;;7.80;99.90;;;;;;5093946;28;20054;-80
2022/01/14 13:12:04;;;;;;;9.10;3.13;;;7.70;99.90;;;;;;5093857;28;20122;-80
2022/01/14 13:14:42;;;;;;;13.38;4.35;;;7.80;99.90;;;;;;5093855;28;20058;-80